Time;durP1;ratioP1;P1;durP2;ratioP2;P2;SDS_P1;SDS_P2;PMS_P1;PMS_P2;Temp;Humidity;BMP_temperature;BMP_pressure;BME280_temperature;BME280_humidity;BME280_pressure;Samples;Min_cycle;Max_cycle;Signal;HPM_P1;HPM_P2
2022/10/06 00:00:52;;;;;;;0.95;0.40;;;14.10;84.20;;;;;;4858708;29;20064;-77
2022/10/06 00:03:21;;;;;;;1.15;0.40;;;14.10;84.20;;;;;;4848436;29;20045;-77
2022/10/06 00:05:50;;;;;;;0.50;0.30;;;14.10;84.20;;;;;;4844729;29;20042;-77
2022/10/06 00:08:18;;;;;;;0.73;0.30;;;14.10;84.20;;;;;;4844380;29;20077;-77
2022/10/06 00:10:44;;;;;;;0.73;0.32;;;14.10;84.20;;;;;;4845228;29;20063;-77
2022/10/06 00:13:10;;;;;;;1.25;0.25;;;14.00;84.20;;;;;;4849853;29;20037;-77
2022/10/06 00:15:36;;;;;;;0.20;0.20;;;14.00;84.10;;;;;;4853532;29;20049;-77
2022/10/06 00:18:02;;;;;;;0.30;0.20;;;14.00;84.20;;;;;;4855217;29;20131;-76
2022/10/06 00:20:28;;;;;;;0.20;0.20;;;14.00;84.10;;;;;;4868227;29;20145;-77
2022/10/06 00:22:57;;;;;;;0.38;0.20;;;14.00;84.10;;;;;;4847442;29;20045;-78
2022/10/06 00:25:24;;;;;;;1.17;0.30;;;14.00;84.10;;;;;;4845284;29;20400;-77
2022/10/06 00:27:57;;;;;;;0.98;0.40;;;13.90;83.90;;;;;;4837211;29;20042;-77
2022/10/06 00:30:45;;;;;;;0.47;0.20;;;14.00;84.00;;;;;;4851612;29;20054;-78
2022/10/06 00:36:12;;;;;;;1.65;0.40;;;13.90;83.90;;;;;;4850020;29;20512;-78
2022/10/06 00:41:35;;;;;;;1.98;0.40;;;13.90;83.90;;;;;;4852925;29;20772;-78
2022/10/06 00:44:01;;;;;;;0.80;0.30;;;13.80;83.80;;;;;;4810416;29;20519;-77
2022/10/06 00:46:44;;;;;;;0.55;0.25;;;13.80;83.90;;;;;;4807066;29;20038;-78
2022/10/06 00:49:23;;;;;;;0.77;0.30;;;13.70;83.90;;;;;;4808537;29;20442;-78
2022/10/06 00:51:53;;;;;;;1.05;0.40;;;13.80;84.00;;;;;;4818029;29;20051;-78
2022/10/06 00:54:45;;;;;;;0.20;0.20;;;13.80;83.90;;;;;;4819115;29;20125;-78
2022/10/06 00:57:12;;;;;;;0.93;0.30;;;13.80;83.90;;;;;;4789640;29;20042;-78
2022/10/06 00:59:51;;;;;;;0.73;0.25;;;13.70;83.90;;;;;;4819348;29;20776;-78
2022/10/06 01:02:29;;;;;;;2.10;0.30;;;13.70;83.90;;;;;;4769915;30;20446;-78
2022/10/06 01:04:59;;;;;;;0.30;0.30;;;13.60;83.90;;;;;;4734166;30;20064;-78
2022/10/06 01:07:36;;;;;;;2.78;0.40;;;13.70;83.90;;;;;;4732383;30;20574;-77
2022/10/06 01:10:03;;;;;;;1.88;0.40;;;13.60;83.80;;;;;;4738524;30;20544;-78
2022/10/06 01:12:32;;;;;;;1.08;0.30;;;13.60;83.80;;;;;;4772353;29;20049;-77
2022/10/06 01:14:58;;;;;;;0.45;0.28;;;13.60;83.80;;;;;;4803096;29;20505;-78
2022/10/06 01:17:38;;;;;;;0.20;0.20;;;13.60;83.80;;;;;;4785912;29;20043;-77
2022/10/06 01:20:08;;;;;;;0.30;0.25;;;13.60;83.80;;;;;;4799067;29;20095;-78
2022/10/06 01:22:37;;;;;;;0.95;0.20;;;13.60;83.80;;;;;;4812655;29;20437;-78
2022/10/06 01:25:06;;;;;;;0.80;0.20;;;13.60;83.80;;;;;;4830187;29;20039;-78
2022/10/06 01:27:35;;;;;;;0.25;0.25;;;13.50;84.30;;;;;;4826826;29;20050;-77
2022/10/06 01:30:01;;;;;;;0.40;0.22;;;13.50;83.70;;;;;;4828517;29;20053;-78
2022/10/06 01:32:33;;;;;;;0.70;0.30;;;13.50;83.80;;;;;;4838171;29;20030;-78
2022/10/06 01:34:59;;;;;;;2.25;0.45;;;13.40;83.80;;;;;;4864022;29;20046;-77
2022/10/06 01:37:25;;;;;;;1.10;0.30;;;13.30;83.80;;;;;;4868636;29;20049;-77
2022/10/06 01:39:50;;;;;;;0.73;0.30;;;13.40;83.90;;;;;;4867764;29;20392;-77
2022/10/06 01:42:16;;;;;;;0.57;0.32;;;13.30;83.90;;;;;;4870315;29;20029;-77
2022/10/06 01:44:42;;;;;;;0.75;0.40;;;13.30;83.90;;;;;;4873529;29;20117;-78
2022/10/06 01:47:07;;;;;;;0.75;0.30;;;13.30;83.90;;;;;;4876873;29;20045;-78
2022/10/06 01:49:33;;;;;;;0.82;0.30;;;13.40;83.90;;;;;;4876887;29;20061;-78
2022/10/06 01:52:00;;;;;;;0.30;0.20;;;13.30;83.80;;;;;;4878154;29;20061;-77
2022/10/06 01:54:26;;;;;;;1.13;0.30;;;13.30;83.80;;;;;;4912880;29;20398;-78
2022/10/06 01:56:51;;;;;;;0.73;0.32;;;13.30;83.80;;;;;;4893476;29;20075;-78
2022/10/06 01:59:17;;;;;;;0.32;0.25;;;13.30;83.80;;;;;;4909470;29;20052;-77
2022/10/06 02:01:43;;;;;;;0.30;0.20;;;13.30;83.70;;;;;;4911469;29;20037;-77
2022/10/06 02:04:09;;;;;;;0.98;0.30;;;13.30;83.70;;;;;;4897957;29;20048;-77
2022/10/06 02:06:34;;;;;;;0.57;0.35;;;13.30;83.60;;;;;;4906320;29;20044;-78
2022/10/06 02:09:01;;;;;;;0.98;0.28;;;13.30;83.60;;;;;;4905085;29;20036;-77
2022/10/06 02:11:27;;;;;;;0.85;0.30;;;13.30;83.70;;;;;;4868651;29;20130;-78
2022/10/06 02:13:53;;;;;;;1.05;0.30;;;13.30;83.60;;;;;;4888639;29;20040;-77
2022/10/06 02:16:19;;;;;;;1.60;0.43;;;13.40;83.70;;;;;;4886089;29;20400;-77
2022/10/06 02:18:45;;;;;;;2.17;0.30;;;13.20;83.70;;;;;;4883724;29;20033;-77
2022/10/06 02:21:15;;;;;;;1.08;0.40;;;13.20;83.70;;;;;;4865222;29;20037;-78
2022/10/06 02:23:40;;;;;;;1.88;0.40;;;13.20;83.80;;;;;;4886982;29;20037;-78
2022/10/06 02:26:06;;;;;;;0.40;0.28;;;13.20;83.80;;;;;;4900488;29;20361;-77
2022/10/06 02:28:33;;;;;;;0.60;0.32;;;13.00;83.70;;;;;;4903683;29;20490;-77
2022/10/06 02:31:02;;;;;;;1.15;0.30;;;13.00;83.70;;;;;;4900361;29;20381;-78
2022/10/06 02:33:27;;;;;;;0.10;0.10;;;13.10;83.90;;;;;;4900501;29;20053;-77
2022/10/06 02:35:54;;;;;;;1.30;0.30;;;13.10;83.90;;;;;;4882836;29;20052;-77
2022/10/06 02:38:20;;;;;;;0.40;0.22;;;13.00;83.90;;;;;;4899330;29;20041;-77
2022/10/06 02:40:46;;;;;;;0.57;0.20;;;13.00;83.80;;;;;;4902199;29;20036;-77
2022/10/06 02:43:12;;;;;;;0.60;0.40;;;12.90;83.80;;;;;;4901841;29;20040;-77
2022/10/06 02:45:38;;;;;;;0.95;0.30;;;13.00;83.80;;;;;;4902814;29;20047;-78
2022/10/06 02:48:04;;;;;;;0.20;0.20;;;12.90;83.80;;;;;;4902904;29;20076;-77
2022/10/06 02:50:29;;;;;;;0.85;0.35;;;12.90;83.90;;;;;;4898443;29;20053;-77
2022/10/06 02:52:55;;;;;;;1.08;0.20;;;12.80;83.90;;;;;;4869504;29;20040;-77
2022/10/06 02:55:21;;;;;;;0.43;0.20;;;12.80;83.90;;;;;;4897718;29;20052;-78
2022/10/06 02:57:47;;;;;;;0.28;0.22;;;12.80;83.90;;;;;;4898513;29;20571;-78
2022/10/06 03:00:14;;;;;;;0.40;0.20;;;12.80;83.90;;;;;;4880595;29;20143;-77
2022/10/06 03:02:40;;;;;;;0.40;0.20;;;12.80;83.90;;;;;;4869654;29;20053;-78
2022/10/06 03:05:06;;;;;;;1.70;0.40;;;12.80;83.90;;;;;;4860165;29;20465;-77
2022/10/06 03:07:31;;;;;;;0.43;0.30;;;12.70;83.90;;;;;;4896434;29;20399;-77
2022/10/06 03:09:57;;;;;;;1.67;0.20;;;12.80;84.00;;;;;;4896653;29;20119;-77
2022/10/06 03:12:23;;;;;;;0.73;0.30;;;12.70;84.00;;;;;;4879770;29;20051;-77
2022/10/06 03:14:49;;;;;;;0.63;0.25;;;12.70;84.00;;;;;;4867265;29;20123;-77
2022/10/06 03:17:14;;;;;;;0.28;0.20;;;12.70;84.00;;;;;;4859479;29;20030;-77
2022/10/06 03:19:40;;;;;;;0.32;0.30;;;12.50;83.90;;;;;;4857587;29;20034;-77
2022/10/06 03:22:06;;;;;;;1.05;0.35;;;12.60;84.10;;;;;;4858789;29;20034;-78
2022/10/06 03:24:32;;;;;;;0.50;0.30;;;12.50;84.00;;;;;;4857887;29;20397;-78
2022/10/06 03:26:57;;;;;;;1.60;0.30;;;12.50;84.10;;;;;;4859232;29;20495;-77
2022/10/06 03:29:23;;;;;;;0.95;0.35;;;12.40;84.00;;;;;;4859748;29;20041;-78
2022/10/06 03:31:49;;;;;;;1.55;0.50;;;12.50;84.10;;;;;;4859437;29;20136;-77
2022/10/06 03:34:14;;;;;;;0.50;0.30;;;12.40;84.10;;;;;;4858790;29;20128;-77
2022/10/06 03:36:41;;;;;;;0.28;0.22;;;12.40;84.20;;;;;;4858667;29;20408;-78
2022/10/06 03:39:07;;;;;;;0.75;0.20;;;12.40;84.20;;;;;;4858562;29;20492;-77
2022/10/06 03:41:36;;;;;;;1.55;0.20;;;12.40;84.20;;;;;;4865126;29;20037;-78
2022/10/06 03:44:02;;;;;;;1.40;0.30;;;12.40;84.30;;;;;;4897522;29;20037;-77
2022/10/06 03:46:31;;;;;;;0.68;0.30;;;12.30;84.30;;;;;;4898092;29;20096;-77
2022/10/06 03:48:58;;;;;;;1.52;0.40;;;12.30;84.40;;;;;;4899128;29;20037;-78
2022/10/06 03:51:26;;;;;;;1.58;0.52;;;12.30;84.40;;;;;;4902726;29;20044;-77
2022/10/06 03:53:53;;;;;;;0.70;0.20;;;12.20;84.30;;;;;;4895644;29;20042;-78
2022/10/06 03:56:23;;;;;;;0.63;0.20;;;12.20;84.30;;;;;;4893304;29;20038;-77
2022/10/06 03:58:53;;;;;;;1.08;0.30;;;12.20;84.30;;;;;;4868266;29;20052;-78
2022/10/06 04:01:22;;;;;;;2.33;0.45;;;12.20;84.40;;;;;;4865795;29;20129;-77
2022/10/06 04:03:48;;;;;;;0.25;0.20;;;12.20;84.40;;;;;;4865835;29;20052;-78
2022/10/06 04:06:17;;;;;;;0.98;0.20;;;12.10;84.40;;;;;;4863408;29;20093;-78
2022/10/06 04:08:44;;;;;;;0.77;0.20;;;12.10;84.50;;;;;;4865611;29;20053;-77
2022/10/06 04:11:13;;;;;;;0.57;0.38;;;12.10;84.50;;;;;;4866327;29;20100;-77
2022/10/06 04:13:40;;;;;;;0.40;0.20;;;12.10;84.60;;;;;;4866589;29;20128;-77
2022/10/06 04:16:16;;;;;;;0.50;0.10;;;12.00;84.60;;;;;;4866238;29;20041;-78
2022/10/06 04:18:43;;;;;;;0.47;0.20;;;12.00;84.60;;;;;;4867560;29;20060;-77
2022/10/06 04:21:09;;;;;;;3.03;0.40;;;12.00;84.60;;;;;;4868512;29;20101;-77
2022/10/06 04:23:35;;;;;;;0.98;0.28;;;12.00;84.60;;;;;;4866361;29;20503;-77
2022/10/06 04:26:05;;;;;;;1.13;0.30;;;11.90;84.70;;;;;;4868751;29;20041;-77
2022/10/06 04:28:31;;;;;;;0.28;0.20;;;11.90;84.70;;;;;;4863820;29;20407;-78
2022/10/06 04:30:59;;;;;;;1.55;0.30;;;11.90;84.80;;;;;;4868359;29;20045;-77
2022/10/06 04:33:25;;;;;;;1.88;0.30;;;11.90;84.90;;;;;;4870297;29;20103;-77
2022/10/06 04:36:01;;;;;;;0.60;0.30;;;11.80;84.80;;;;;;4903534;29;20036;-77
2022/10/06 04:38:28;;;;;;;0.73;0.28;;;11.80;84.90;;;;;;4906433;29;20044;-77
2022/10/06 04:40:56;;;;;;;0.50;0.30;;;11.80;85.00;;;;;;4885935;29;20045;-77
2022/10/06 04:43:23;;;;;;;0.45;0.20;;;11.70;84.90;;;;;;4867096;29;20065;-77
2022/10/06 04:45:56;;;;;;;1.17;0.30;;;11.70;84.90;;;;;;4867653;29;20049;-78
2022/10/06 04:48:23;;;;;;;0.73;0.30;;;11.70;85.00;;;;;;4865862;29;20064;-77
2022/10/06 04:51:06;;;;;;;1.95;0.30;;;11.70;85.00;;;;;;4866824;29;20054;-77
2022/10/06 04:53:32;;;;;;;0.60;0.28;;;11.60;85.00;;;;;;4864485;29;20045;-77
2022/10/06 04:56:01;;;;;;;0.73;0.25;;;11.60;85.00;;;;;;4865983;29;20401;-78
2022/10/06 04:58:36;;;;;;;0.70;0.30;;;11.60;85.10;;;;;;4867376;29;20057;-74
2022/10/06 05:01:04;;;;;;;1.20;0.28;;;11.70;85.10;;;;;;4870788;29;20045;-75
2022/10/06 05:03:30;;;;;;;0.50;0.25;;;11.60;85.10;;;;;;4880474;29;20085;-76
2022/10/06 05:06:05;;;;;;;0.32;0.20;;;11.60;85.10;;;;;;4879222;29;20061;-75
2022/10/06 05:08:32;;;;;;;0.65;0.30;;;11.60;85.10;;;;;;4879740;29;20117;-75
2022/10/06 05:11:00;;;;;;;0.52;0.20;;;11.60;85.10;;;;;;4877979;29;20048;-76
2022/10/06 05:13:26;;;;;;;1.00;0.30;;;11.50;85.00;;;;;;4878437;29;20105;-75
2022/10/06 05:15:58;;;;;;;0.93;0.30;;;11.50;85.00;;;;;;4857487;29;20061;-76
2022/10/06 05:18:24;;;;;;;0.90;0.30;;;11.50;85.00;;;;;;4880711;29;20049;-76
2022/10/06 05:20:59;;;;;;;1.52;0.35;;;11.50;85.00;;;;;;4866638;29;20081;-78
2022/10/06 05:23:27;;;;;;;0.88;0.40;;;11.50;85.10;;;;;;4862919;29;20061;-80
2022/10/06 05:25:53;;;;;;;1.85;0.30;;;11.50;85.10;;;;;;4860775;29;20121;-77
2022/10/06 05:28:20;;;;;;;1.00;0.32;;;11.50;85.10;;;;;;4861596;29;20074;-77
2022/10/06 05:31:03;;;;;;;0.43;0.30;;;11.40;85.10;;;;;;4858098;29;20136;-76
2022/10/06 05:33:32;;;;;;;1.27;0.20;;;11.40;85.10;;;;;;4861122;29;20441;-78
2022/10/06 05:36:01;;;;;;;0.82;0.30;;;11.40;85.10;;;;;;4859715;29;20037;-78
2022/10/06 05:38:27;;;;;;;0.38;0.25;;;11.40;85.10;;;;;;4859056;29;20125;-79
2022/10/06 05:41:06;;;;;;;1.60;0.40;;;11.30;85.10;;;;;;4858837;29;20417;-77
2022/10/06 05:43:33;;;;;;;0.25;0.20;;;11.30;85.80;;;;;;4860962;29;20087;-77
2022/10/06 05:46:01;;;;;;;0.60;0.20;;;11.30;85.20;;;;;;4859014;29;20547;-77
2022/10/06 05:48:28;;;;;;;0.75;0.30;;;11.30;85.30;;;;;;4859412;29;20061;-77
2022/10/06 05:51:03;;;;;;;0.47;0.20;;;11.30;85.40;;;;;;4860591;29;20049;-77
2022/10/06 05:53:30;;;;;;;1.13;0.30;;;11.20;85.40;;;;;;4860752;29;20033;-78
2022/10/06 05:56:13;;;;;;;0.63;0.30;;;11.20;85.50;;;;;;4860591;29;20041;-77
2022/10/06 05:58:41;;;;;;;0.85;0.30;;;11.20;85.50;;;;;;4860632;29;20025;-78
2022/10/06 06:01:13;;;;;;;1.75;0.30;;;11.10;85.40;;;;;;4857774;29;20037;-78
2022/10/06 06:03:40;;;;;;;0.55;0.20;;;11.10;85.60;;;;;;4857942;29;20102;-78
2022/10/06 06:06:22;;;;;;;1.85;0.40;;;11.10;85.50;;;;;;4857908;29;20054;-78
2022/10/06 06:08:52;;;;;;;0.20;0.20;;;11.10;85.60;;;;;;4860392;29;20124;-76
2022/10/06 06:11:24;;;;;;;1.38;0.38;;;11.10;85.60;;;;;;4859332;29;20050;-74
2022/10/06 06:13:51;;;;;;;;;;;11.10;85.60;;;;;;4845768;29;20094;-76
2022/10/06 06:16:17;;;;;;;0.55;0.30;;;11.20;85.60;;;;;;4878079;29;19968;-76
2022/10/06 06:18:43;;;;;;;0.45;0.30;;;11.10;86.00;;;;;;4860478;29;20046;-76
2022/10/06 06:21:09;;;;;;;0.70;0.40;;;11.10;85.40;;;;;;4859893;29;20033;-76
2022/10/06 06:23:40;;;;;;;0.95;0.30;;;11.10;85.50;;;;;;4861329;29;20442;-76
2022/10/06 06:26:09;;;;;;;1.35;0.17;;;11.10;85.50;;;;;;4857483;29;20033;-76
2022/10/06 06:28:36;;;;;;;0.30;0.30;;;11.10;85.50;;;;;;4860927;29;20067;-76
2022/10/06 06:31:20;;;;;;;1.27;0.32;;;11.10;85.50;;;;;;4897045;29;20057;-73
2022/10/06 06:33:47;;;;;;;1.38;0.30;;;11.10;85.50;;;;;;4880429;29;20502;-75
2022/10/06 06:36:15;;;;;;;1.02;0.20;;;11.10;85.40;;;;;;4897040;29;20384;-77
2022/10/06 06:38:42;;;;;;;1.13;0.30;;;11.20;85.40;;;;;;4897047;29;20184;-76
2022/10/06 06:41:17;;;;;;;1.25;0.30;;;11.30;85.50;;;;;;4897107;29;20503;-76
2022/10/06 06:43:44;;;;;;;0.55;0.30;;;11.20;85.40;;;;;;4896817;29;20526;-76
2022/10/06 06:46:11;;;;;;;1.35;0.50;;;11.20;85.30;;;;;;4880362;29;20052;-76
2022/10/06 06:48:37;;;;;;;0.55;0.30;;;11.20;85.30;;;;;;4896469;29;20407;-77
2022/10/06 06:51:04;;;;;;;1.23;0.40;;;11.20;85.20;;;;;;4896608;29;20083;-76
2022/10/06 06:53:30;;;;;;;0.63;0.20;;;11.30;85.30;;;;;;4880201;29;20463;-76
2022/10/06 06:55:56;;;;;;;2.03;0.40;;;11.30;85.20;;;;;;4897019;29;20048;-76
2022/10/06 06:58:22;;;;;;;0.80;0.40;;;11.30;85.20;;;;;;4896723;29;20161;-76
2022/10/06 07:00:48;;;;;;;1.48;0.43;;;11.30;85.10;;;;;;4864259;29;20041;-76
2022/10/06 07:03:18;;;;;;;0.30;0.30;;;11.40;85.10;;;;;;4858989;29;20132;-75
2022/10/06 07:05:45;;;;;;;0.65;0.25;;;11.40;85.10;;;;;;4858439;29;20068;-76
2022/10/06 07:08:14;;;;;;;1.70;0.50;;;11.40;85.00;;;;;;4859441;29;20120;-76
2022/10/06 07:10:41;;;;;;;0.90;0.47;;;11.50;85.10;;;;;;4861185;29;20045;-76
2022/10/06 07:13:07;;;;;;;2.72;0.55;;;11.50;85.00;;;;;;4859206;29;20038;-77
2022/10/06 07:26:14;;;;;;;0.70;0.30;;;11.60;84.70;;;;;;4882026;29;20080;-76
2022/10/06 07:28:41;;;;;;;1.00;0.50;;;11.70;84.60;;;;;;4900010;29;20064;-77
2022/10/06 07:31:06;;;;;;;1.25;0.30;;;11.80;84.60;;;;;;4882756;29;20772;-78
2022/10/06 07:33:32;;;;;;;1.40;0.40;;;11.80;84.60;;;;;;4867255;29;20115;-77
2022/10/06 07:35:58;;;;;;;0.40;0.35;;;11.90;84.60;;;;;;4899691;29;20040;-76
2022/10/06 07:38:24;;;;;;;2.85;0.52;;;11.90;84.40;;;;;;4899262;29;20496;-76
2022/10/06 07:40:55;;;;;;;1.88;0.55;;;12.00;84.40;;;;;;4871419;29;20132;-77
2022/10/06 07:43:21;;;;;;;1.58;0.63;;;12.10;84.40;;;;;;4861945;29;20083;-76
2022/10/06 07:45:48;;;;;;;1.15;0.50;;;12.10;84.20;;;;;;4862708;29;20077;-76
2022/10/06 07:48:17;;;;;;;1.23;0.50;;;12.20;84.10;;;;;;4860898;29;20143;-76
2022/10/06 07:50:44;;;;;;;0.88;0.40;;;12.20;84.10;;;;;;4862473;29;20108;-76
2022/10/06 07:53:11;;;;;;;1.60;0.60;;;12.30;83.90;;;;;;4861128;29;20045;-76
2022/10/06 07:55:38;;;;;;;0.82;0.38;;;12.40;83.80;;;;;;4862224;29;20101;-76
2022/10/06 07:58:10;;;;;;;2.17;0.40;;;12.40;83.70;;;;;;4861928;29;20124;-76
2022/10/06 08:00:36;;;;;;;1.67;0.60;;;12.50;83.70;;;;;;4899047;29;20041;-76
2022/10/06 08:03:01;;;;;;;1.30;0.50;;;12.50;83.70;;;;;;4898086;29;20036;-77
2022/10/06 08:05:27;;;;;;;1.65;0.55;;;12.60;83.70;;;;;;4899366;29;20128;-76
2022/10/06 08:07:53;;;;;;;1.75;0.52;;;12.80;83.70;;;;;;4898798;29;20407;-76
2022/10/06 08:10:19;;;;;;;1.35;0.52;;;12.70;83.60;;;;;;4866367;29;20408;-76
2022/10/06 08:12:45;;;;;;;0.57;0.25;;;12.70;83.60;;;;;;4867682;29;20029;-76
2022/10/06 08:15:12;;;;;;;0.65;0.45;;;12.80;83.60;;;;;;4899277;29;20047;-76
2022/10/06 08:17:39;;;;;;;1.35;0.50;;;12.80;83.40;;;;;;4899234;29;20116;-76
2022/10/06 08:20:07;;;;;;;3.88;0.63;;;12.80;83.30;;;;;;4882426;29;20044;-77
2022/10/06 08:22:35;;;;;;;1.45;0.60;;;12.90;83.40;;;;;;4899371;29;20045;-76
2022/10/06 08:25:01;;;;;;;2.50;0.60;;;12.90;83.30;;;;;;4898887;29;20079;-76
2022/10/06 08:27:28;;;;;;;0.47;0.40;;;12.90;83.60;;;;;;4897275;29;20052;-76
2022/10/06 08:29:54;;;;;;;1.80;0.50;;;13.00;83.30;;;;;;4873234;29;20045;-76
2022/10/06 08:32:22;;;;;;;1.55;0.50;;;13.10;83.30;;;;;;4898570;29;20135;-76
2022/10/06 08:34:48;;;;;;;3.03;0.55;;;13.00;83.20;;;;;;4897951;29;20045;-77
2022/10/06 08:37:16;;;;;;;0.30;0.20;;;13.10;83.20;;;;;;4882068;29;20041;-76
2022/10/06 08:39:41;;;;;;;1.10;0.45;;;13.10;83.20;;;;;;4845473;29;20088;-77
2022/10/06 08:42:17;;;;;;;1.27;0.55;;;13.10;83.00;;;;;;4861517;29;20049;-77
2022/10/06 08:44:49;;;;;;;1.58;0.63;;;13.20;83.00;;;;;;4861077;29;20064;-76
2022/10/06 08:47:18;;;;;;;1.33;0.40;;;13.30;83.00;;;;;;4861037;29;20057;-76
2022/10/06 08:49:47;;;;;;;1.23;0.55;;;13.30;83.00;;;;;;4859952;29;20420;-76
2022/10/06 08:52:48;;;;;;;2.90;0.55;;;13.40;82.80;;;;;;4861353;29;20058;-77
2022/10/06 08:55:33;;;;;;;2.38;0.50;;;13.50;82.70;;;;;;4860698;29;20069;-77
2022/10/06 08:58:38;;;;;;;1.75;0.50;;;13.50;82.50;;;;;;4860896;29;20049;-77
2022/10/06 09:01:15;;;;;;;2.13;0.50;;;13.60;82.40;;;;;;4861052;29;20045;-76
2022/10/06 09:03:46;;;;;;;1.88;0.60;;;13.50;82.20;;;;;;4861382;29;20041;-77
2022/10/06 09:06:40;;;;;;;0.52;0.25;;;13.70;82.30;;;;;;4859545;29;20129;-78
2022/10/06 09:09:24;;;;;;;2.20;0.43;;;13.70;82.20;;;;;;4881221;29;20067;-77
2022/10/06 09:12:15;;;;;;;1.52;0.50;;;13.80;82.00;;;;;;4882620;29;20045;-77
2022/10/06 09:14:50;;;;;;;0.98;0.43;;;13.80;81.90;;;;;;4897191;29;20053;-78
2022/10/06 09:17:25;;;;;;;2.72;0.50;;;13.80;81.80;;;;;;4880896;29;20059;-77
2022/10/06 09:19:58;;;;;;;0.65;0.40;;;13.90;81.70;;;;;;4897854;29;20059;-77
2022/10/06 09:22:28;;;;;;;1.33;0.45;;;14.00;81.60;;;;;;4898191;29;20048;-78
2022/10/06 09:25:09;;;;;;;0.75;0.45;;;14.00;81.50;;;;;;4881005;29;20488;-77
2022/10/06 09:27:39;;;;;;;1.58;0.57;;;14.10;81.40;;;;;;4897437;29;20040;-77
2022/10/06 09:30:07;;;;;;;1.33;0.40;;;14.10;81.30;;;;;;4897408;29;20051;-77
2022/10/06 09:32:33;;;;;;;1.15;0.50;;;14.10;81.20;;;;;;4896239;29;20044;-77
2022/10/06 09:34:59;;;;;;;0.95;0.30;;;14.20;81.20;;;;;;4897459;29;20041;-77
2022/10/06 09:37:25;;;;;;;0.73;0.50;;;14.20;81.10;;;;;;4898179;29;20045;-78
2022/10/06 09:39:52;;;;;;;3.53;0.75;;;14.30;81.00;;;;;;4881169;29;20032;-77
2022/10/06 09:42:24;;;;;;;2.17;0.60;;;14.30;81.50;;;;;;4881288;29;20063;-77
2022/10/06 09:44:57;;;;;;;0.77;0.32;;;14.30;80.80;;;;;;4896395;29;20060;-77
2022/10/06 09:47:43;;;;;;;0.90;0.50;;;14.40;80.80;;;;;;4868472;29;20050;-77
2022/10/06 09:50:19;;;;;;;1.42;0.38;;;14.40;80.60;;;;;;4860368;29;20069;-77
2022/10/06 09:53:03;;;;;;;1.67;0.40;;;14.40;80.60;;;;;;4860669;29;20030;-77
2022/10/06 09:55:43;;;;;;;0.95;0.35;;;14.50;80.50;;;;;;4843665;29;20389;-77
2022/10/06 09:58:20;;;;;;;2.20;0.43;;;14.60;80.40;;;;;;4860152;29;20094;-77
2022/10/06 10:00:53;;;;;;;0.38;0.30;;;14.70;80.20;;;;;;4860280;29;20041;-77
2022/10/06 10:03:20;;;;;;;1.50;0.40;;;14.70;80.10;;;;;;4859996;29;20048;-77
2022/10/06 10:05:49;;;;;;;0.80;0.40;;;14.70;79.90;;;;;;4843734;29;20048;-78
2022/10/06 10:08:24;;;;;;;1.52;0.50;;;14.80;79.80;;;;;;4860668;29;20175;-77
2022/10/06 10:13:58;;;;;;;1.30;0.35;;;14.80;79.60;;;;;;4878652;29;20048;-77
2022/10/06 10:16:29;;;;;;;0.10;0.10;;;14.90;79.60;;;;;;4840635;29;20052;-77
2022/10/06 10:18:56;;;;;;;1.65;0.47;;;15.00;79.50;;;;;;4845841;29;20048;-77
2022/10/06 10:21:25;;;;;;;1.33;0.45;;;15.00;79.30;;;;;;4878163;29;20064;-78
2022/10/06 10:23:55;;;;;;;1.20;0.40;;;15.10;79.20;;;;;;4878334;29;20060;-77
2022/10/06 10:26:43;;;;;;;0.90;0.40;;;15.10;78.90;;;;;;4860635;29;20045;-78
2022/10/06 10:29:42;;;;;;;0.68;0.40;;;15.20;78.70;;;;;;4844548;29;20408;-77
2022/10/06 10:32:37;;;;;;;1.83;0.50;;;15.20;78.50;;;;;;4857908;29;20148;-77
2022/10/06 10:35:19;;;;;;;0.20;0.20;;;15.30;78.50;;;;;;4857268;29;20128;-78
2022/10/06 10:37:54;;;;;;;1.92;0.65;;;15.30;78.50;;;;;;4860168;29;20048;-78
2022/10/06 10:40:39;;;;;;;0.70;0.40;;;15.40;78.40;;;;;;4857207;29;20041;-77
2022/10/06 10:43:25;;;;;;;0.40;0.30;;;15.40;78.30;;;;;;4859697;29;20481;-78
2022/10/06 10:46:00;;;;;;;1.30;0.47;;;15.40;78.20;;;;;;4859373;29;20086;-77
2022/10/06 10:48:32;;;;;;;1.08;0.40;;;15.40;78.20;;;;;;4859582;29;20042;-78
2022/10/06 10:51:08;;;;;;;1.30;0.47;;;15.50;78.00;;;;;;4864541;29;20066;-77
2022/10/06 10:53:59;;;;;;;1.65;0.63;;;15.50;78.00;;;;;;4881331;29;20029;-77
2022/10/06 10:56:26;;;;;;;0.65;0.35;;;15.50;78.00;;;;;;4896309;29;20049;-77
2022/10/06 10:58:57;;;;;;;1.70;0.50;;;15.50;78.10;;;;;;4896473;29;20045;-77
2022/10/06 11:01:48;;;;;;;1.98;0.40;;;15.50;78.00;;;;;;4894897;29;20472;-78
2022/10/06 11:04:14;;;;;;;1.80;0.60;;;15.50;78.00;;;;;;4896266;29;20048;-78
2022/10/06 11:07:02;;;;;;;0.80;0.30;;;15.50;78.10;;;;;;4879909;29;20534;-78
2022/10/06 11:09:59;;;;;;;1.23;0.47;;;15.60;78.00;;;;;;4879426;29;20056;-78
2022/10/06 11:12:42;;;;;;;0.30;0.22;;;15.70;77.90;;;;;;4896183;29;20057;-78
2022/10/06 11:15:30;;;;;;;1.92;0.60;;;15.80;77.60;;;;;;4896224;29;20048;-77
2022/10/06 11:18:04;;;;;;;1.17;0.25;;;15.90;77.20;;;;;;4896396;29;20040;-77
2022/10/06 11:20:51;;;;;;;1.83;0.40;;;15.90;77.00;;;;;;4883192;29;20436;-77
2022/10/06 11:23:43;;;;;;;2.58;0.40;;;15.90;76.90;;;;;;4879486;29;20076;-78
2022/10/06 11:26:26;;;;;;;0.55;0.40;;;15.90;77.10;;;;;;4895927;29;20100;-78
2022/10/06 11:29:10;;;;;;;1.35;0.45;;;15.90;77.20;;;;;;4888631;29;20037;-77
2022/10/06 11:31:58;;;;;;;0.80;0.47;;;16.00;77.00;;;;;;4858957;29;20102;-77
2022/10/06 11:34:24;;;;;;;1.73;0.50;;;16.10;76.90;;;;;;4858877;29;20038;-77
2022/10/06 11:37:02;;;;;;;2.10;0.50;;;16.10;76.60;;;;;;4859202;29;20033;-76
2022/10/06 11:39:51;;;;;;;0.85;0.40;;;16.10;76.10;;;;;;4859082;29;20045;-78
2022/10/06 11:42:51;;;;;;;1.77;0.40;;;16.20;76.10;;;;;;4858663;29;20408;-75
2022/10/06 11:45:22;;;;;;;1.25;0.30;;;16.20;76.20;;;;;;4858881;29;20132;-75
2022/10/06 11:48:22;;;;;;;2.13;0.60;;;16.00;76.30;;;;;;4859394;29;20098;-77
2022/10/06 11:50:50;;;;;;;2.35;0.50;;;15.90;76.60;;;;;;4857518;29;20402;-76
2022/10/06 11:53:37;;;;;;;1.33;0.50;;;16.00;76.70;;;;;;4857134;29;20037;-76
2022/10/06 11:56:26;;;;;;;2.55;0.77;;;16.00;76.30;;;;;;4857873;29;20497;-75
2022/10/06 11:59:12;;;;;;;1.98;0.50;;;16.20;76.20;;;;;;4858976;29;20041;-76
2022/10/06 12:01:50;;;;;;;1.42;0.40;;;16.40;75.90;;;;;;4855704;29;20051;-77
2022/10/06 12:04:16;;;;;;;3.55;0.77;;;16.50;75.40;;;;;;4859144;29;20504;-77
2022/10/06 12:06:58;;;;;;;1.08;0.47;;;16.50;75.10;;;;;;4858997;29;20063;-76
2022/10/06 12:09:38;;;;;;;0.95;0.40;;;16.50;74.80;;;;;;4859066;29;20077;-76
2022/10/06 12:12:33;;;;;;;2.05;0.32;;;16.50;74.70;;;;;;4861804;29;20057;-77
2022/10/06 12:15:11;;;;;;;2.05;0.80;;;16.70;74.70;;;;;;4859565;29;20133;-77
2022/10/06 12:17:48;;;;;;;0.43;0.25;;;16.70;74.50;;;;;;4861367;29;20101;-77
2022/10/06 12:20:33;;;;;;;1.35;0.30;;;16.80;74.30;;;;;;4861597;29;20136;-77
2022/10/06 12:23:35;;;;;;;2.72;0.47;;;16.90;74.00;;;;;;4861851;29;20042;-77
2022/10/06 12:26:25;;;;;;;0.88;0.30;;;16.90;73.90;;;;;;4859796;29;20125;-76
2022/10/06 12:29:02;;;;;;;1.77;0.60;;;17.00;74.00;;;;;;4860425;29;20045;-77
2022/10/06 12:31:42;;;;;;;0.63;0.30;;;17.00;74.00;;;;;;4861689;29;20050;-76
2022/10/06 12:34:47;;;;;;;1.05;0.40;;;17.00;73.80;;;;;;4847695;29;20132;-77
2022/10/06 12:37:36;;;;;;;1.88;0.60;;;16.80;74.00;;;;;;4861048;29;20037;-77
2022/10/06 12:40:39;;;;;;;0.70;0.30;;;16.80;74.30;;;;;;4861018;29;20033;-76
2022/10/06 12:43:26;;;;;;;1.65;0.38;;;16.70;74.30;;;;;;4861124;29;20509;-77
2022/10/06 12:46:12;;;;;;;0.52;0.20;;;16.70;74.50;;;;;;4859642;29;20792;-77
2022/10/06 12:49:01;;;;;;;0.75;0.30;;;16.60;74.60;;;;;;4859358;29;20053;-76
2022/10/06 12:51:41;;;;;;;0.38;0.20;;;16.60;75.00;;;;;;4872320;29;20049;-76
2022/10/06 12:54:24;;;;;;;0.30;0.20;;;16.60;75.00;;;;;;4897973;29;20491;-76
2022/10/06 12:57:00;;;;;;;1.52;0.30;;;16.70;74.80;;;;;;4872647;29;20569;-76
2022/10/06 12:59:31;;;;;;;1.20;0.40;;;16.90;74.50;;;;;;4861406;29;20052;-77
2022/10/06 13:02:03;;;;;;;1.23;0.50;;;17.00;74.00;;;;;;4861310;29;20492;-77
2022/10/06 13:04:37;;;;;;;0.88;0.40;;;17.20;73.70;;;;;;4860885;29;20045;-77
2022/10/06 13:07:12;;;;;;;0.20;0.20;;;17.20;73.30;;;;;;4858464;29;20045;-76
2022/10/06 13:09:40;;;;;;;1.38;0.45;;;17.20;73.10;;;;;;4861393;29;20505;-77
2022/10/06 13:12:21;;;;;;;2.88;0.57;;;17.30;73.00;;;;;;4858556;29;20052;-76
2022/10/06 13:14:47;;;;;;;0.95;0.32;;;17.40;72.40;;;;;;4861010;29;20030;-77
2022/10/06 13:17:13;;;;;;;2.67;0.50;;;17.50;72.30;;;;;;4848381;29;20444;-77
2022/10/06 13:19:43;;;;;;;0.43;0.30;;;17.50;72.20;;;;;;4881726;29;20033;-77
2022/10/06 13:22:13;;;;;;;0.70;0.35;;;17.60;71.90;;;;;;4865932;29;20044;-76
2022/10/06 13:24:39;;;;;;;0.43;0.30;;;17.70;71.90;;;;;;4881369;29;20051;-77
2022/10/06 13:27:05;;;;;;;1.02;0.32;;;17.70;71.80;;;;;;4897993;29;20052;-78
2022/10/06 13:29:30;;;;;;;4.68;0.47;;;17.70;71.60;;;;;;4881844;29;20041;-78
2022/10/06 13:31:56;;;;;;;1.65;0.50;;;17.80;71.50;;;;;;4898151;29;20678;-76